Time;durP1;ratioP1;P1;durP2;ratioP2;P2;SDS_P1;SDS_P2;PMS_P1;PMS_P2;Temp;Humidity;BMP_temperature;BMP_pressure;BME280_temperature;BME280_humidity;BME280_pressure;Samples;Min_cycle;Max_cycle;Signal;HPM_P1;HPM_P2
2021/12/07 00:00:53;;;;;;;11.43;7.05;;;;;;;;;;4961211;28;20034;-66
2021/12/07 00:03:20;;;;;;;11.30;7.80;;;;;;;;;;4960272;28;20117;-66
2021/12/07 00:05:46;;;;;;;9.82;6.45;;;;;;;;;;4960568;28;20058;-66
2021/12/07 00:08:11;;;;;;;10.88;6.75;;;;;;;;;;4962773;28;21230;-64
2021/12/07 00:10:38;;;;;;;10.85;7.10;;;;;;;;;;4961670;28;20061;-66
2021/12/07 00:13:04;;;;;;;11.93;6.90;;;;;;;;;;4963753;28;20027;-66
2021/12/07 00:15:30;;;;;;;9.95;6.85;;;;;;;;;;4962261;28;20029;-67
2021/12/07 00:17:56;;;;;;;10.88;7.15;;;;;;;;;;4959241;28;21423;-67
2021/12/07 00:20:23;;;;;;;10.27;6.45;;;;;;;;;;4967329;28;20046;-66
2021/12/07 00:22:52;;;;;;;11.05;6.65;;;;;;;;;;4968192;28;20030;-65
2021/12/07 00:25:17;;;;;;;9.20;6.28;;;;;;;;;;4952653;28;20045;-65
2021/12/07 00:27:42;;;;;;;10.70;6.53;;;;;;;;;;4967571;28;20039;-65
2021/12/07 00:30:10;;;;;;;8.77;5.55;;;;;;;;;;4967417;28;20022;-65
2021/12/07 00:32:40;;;;;;;9.32;5.90;;;;;;;;;;4967376;28;20023;-65
2021/12/07 00:37:43;;;;;;;9.70;6.10;;;;;;;;;;4964876;28;20371;-65
2021/12/07 00:40:11;;;;;;;9.15;6.15;;;;;;;;;;4969113;28;20027;-65
2021/12/07 00:42:37;;;;;;;9.73;6.15;;;;;;;;;;4970105;28;20037;-65
2021/12/07 00:45:04;;;;;;;9.13;6.35;;;;;;;;;;4965994;28;20757;-65
2021/12/07 00:47:29;;;;;;;10.05;6.45;;;;;;;;;;4966990;28;20050;-65
2021/12/07 00:49:55;;;;;;;9.23;6.13;;;;;;;;;;4967409;28;20487;-65
2021/12/07 00:52:20;;;;;;;8.60;5.75;;;;;;;;;;4969622;28;20102;-66
2021/12/07 00:54:45;;;;;;;11.55;5.97;;;;;;;;;;4969485;28;20038;-66
2021/12/07 00:57:11;;;;;;;9.55;6.22;;;;;;;;;;4968300;28;20973;-66
2021/12/07 00:59:36;;;;;;;8.07;5.43;;;;;;;;;;4969498;28;20534;-65
2021/12/07 01:02:02;;;;;;;7.93;5.53;;;;;;;;;;4965001;28;20049;-65
2021/12/07 01:04:29;;;;;;;8.18;5.82;;;;;;;;;;4965160;28;20498;-64
2021/12/07 01:25:39;;;;;;;;;;;;;;;;;;4967161;28;20042;-65
2021/12/07 01:28:19;;;;;;;8.10;5.28;;;;;;;;;;4967735;28;20335;-66
2021/12/07 01:30:53;;;;;;;8.27;5.07;;;;;;;;;;4964996;28;20019;-66
2021/12/07 01:59:37;;;;;;;7.03;4.10;;;;;;;;;;4965921;28;20407;-64
2021/12/07 02:02:09;;;;;;;7.18;3.97;;;;;;;;;;4968353;28;20018;-65
2021/12/07 02:04:36;;;;;;;7.10;4.28;;;;;;;;;;4962338;28;20114;-67
2021/12/07 02:07:03;;;;;;;6.93;4.68;;;;;;;;;;4964296;28;20379;-65
2021/12/07 02:09:28;;;;;;;7.65;4.75;;;;;;;;;;4963582;28;20038;-65
2021/12/07 02:11:59;;;;;;;7.22;4.25;;;;;;;;;;4963478;28;20026;-65
2021/12/07 02:14:27;;;;;;;7.10;3.95;;;;;;;;;;4963711;28;20023;-65
2021/12/07 02:17:05;;;;;;;6.32;4.38;;;;;;;;;;4964559;28;20027;-67
2021/12/07 02:19:30;;;;;;;8.25;4.75;;;;;;;;;;4965760;28;20023;-67
2021/12/07 02:21:57;;;;;;;7.28;4.50;;;;;;;;;;4964882;28;20384;-68
2021/12/07 02:24:23;;;;;;;4.82;3.85;;;;;;;;;;4966945;28;20037;-67
2021/12/07 02:26:48;;;;;;;6.20;4.07;;;;;;;;;;4968067;28;20030;-67
2021/12/07 02:29:15;;;;;;;7.13;4.10;;;;;;;;;;4964795;28;20670;-64
2021/12/07 02:31:41;;;;;;;4.63;3.90;;;;;;;;;;4968010;28;20046;-67
2021/12/07 02:34:06;;;;;;;7.00;3.97;;;;;;;;;;4961317;28;20035;-67
2021/12/07 02:36:33;;;;;;;5.85;3.67;;;;;;;;;;4965937;28;20030;-67
2021/12/07 02:38:58;;;;;;;5.57;3.72;;;;;;;;;;4965643;28;20038;-67
2021/12/07 02:41:24;;;;;;;5.13;3.58;;;;;;;;;;4965627;28;20023;-67
2021/12/07 02:43:50;;;;;;;5.40;3.55;;;;;;;;;;4965353;28;20062;-67
2021/12/07 02:46:15;;;;;;;5.70;3.55;;;;;;;;;;4963780;28;20031;-67
2021/12/07 02:48:41;;;;;;;4.75;3.40;;;;;;;;;;4966255;28;20037;-66
2021/12/07 02:51:06;;;;;;;5.40;2.90;;;;;;;;;;4963441;28;20973;-67
2021/12/07 02:53:34;;;;;;;4.40;2.65;;;;;;;;;;4967026;28;20154;-66
2021/12/07 02:56:01;;;;;;;4.55;2.80;;;;;;;;;;4967180;28;20122;-67
2021/12/07 02:58:27;;;;;;;3.28;2.50;;;;;;;;;;4967323;28;20041;-67
2021/12/07 03:01:07;;;;;;;3.05;2.20;;;;;;;;;;4965832;28;20026;-67
2021/12/07 03:03:37;;;;;;;3.10;2.03;;;;;;;;;;4961014;28;20078;-67
2021/12/07 03:06:19;;;;;;;2.40;1.65;;;;;;;;;;4965010;28;20125;-65
2021/12/07 03:27:58;;;;;;;2.63;1.50;;;;;;;;;;4960880;28;21822;-67
2021/12/07 03:30:24;;;;;;;2.88;1.70;;;;;;;;;;4963328;28;20062;-67
2021/12/07 03:32:49;;;;;;;4.00;1.52;;;;;;;;;;4964694;28;20345;-66
2021/12/07 03:35:15;;;;;;;4.22;1.58;;;;;;;;;;4962918;28;20026;-66
2021/12/07 03:37:41;;;;;;;2.70;1.70;;;;;;;;;;4965196;28;20027;-64
2021/12/07 03:40:09;;;;;;;1.83;1.50;;;;;;;;;;4968402;28;20026;-64
2021/12/07 03:42:36;;;;;;;1.48;1.38;;;;;;;;;;4966352;28;20122;-64
2021/12/07 03:45:03;;;;;;;3.20;1.65;;;;;;;;;;4966309;28;20461;-63
2021/12/07 03:47:28;;;;;;;2.80;1.85;;;;;;;;;;4966555;28;20035;-64
2021/12/07 03:49:54;;;;;;;3.75;1.60;;;;;;;;;;4965354;28;20057;-64
2021/12/07 03:52:20;;;;;;;2.08;1.23;;;;;;;;;;4963433;28;20023;-64
2021/12/07 03:54:46;;;;;;;4.00;1.55;;;;;;;;;;4968297;28;20041;-66
2021/12/07 03:57:11;;;;;;;1.75;1.25;;;;;;;;;;4963001;28;20030;-66
2021/12/07 03:59:37;;;;;;;2.00;1.23;;;;;;;;;;4968918;28;20456;-65
2021/12/07 04:02:03;;;;;;;1.80;1.33;;;;;;;;;;4967202;28;20019;-68
2021/12/07 04:04:28;;;;;;;3.97;1.30;;;;;;;;;;4966958;28;20396;-65
2021/12/07 04:06:54;;;;;;;3.60;1.35;;;;;;;;;;4968342;28;20134;-66
2021/12/07 04:09:19;;;;;;;3.22;1.20;;;;;;;;;;4967758;28;20074;-65
2021/12/07 04:11:45;;;;;;;4.90;1.60;;;;;;;;;;4969145;28;20042;-65
2021/12/07 04:14:10;;;;;;;5.07;1.35;;;;;;;;;;4963511;28;20027;-66
2021/12/07 04:16:36;;;;;;;4.70;1.48;;;;;;;;;;4964989;28;20035;-65
2021/12/07 04:19:02;;;;;;;7.15;1.33;;;;;;;;;;4966535;28;20680;-65
2021/12/07 04:21:27;;;;;;;4.43;1.45;;;;;;;;;;4962896;28;20082;-65
2021/12/07 04:23:53;;;;;;;7.22;1.27;;;;;;;;;;4967970;28;20499;-67
2021/12/07 04:26:19;;;;;;;4.88;1.25;;;;;;;;;;4963281;28;20098;-65
2021/12/07 04:28:45;;;;;;;4.63;1.27;;;;;;;;;;4969010;28;20489;-65
2021/12/07 04:31:12;;;;;;;8.05;1.23;;;;;;;;;;4969713;28;20026;-65
2021/12/07 04:33:38;;;;;;;7.78;1.30;;;;;;;;;;4969097;28;20023;-65
2021/12/07 04:36:06;;;;;;;3.50;1.33;;;;;;;;;;4968664;28;20045;-65
2021/12/07 04:38:32;;;;;;;7.13;1.77;;;;;;;;;;4966194;28;20029;-66
2021/12/07 04:40:57;;;;;;;7.35;1.75;;;;;;;;;;4968793;28;21426;-65
2021/12/07 04:43:23;;;;;;;4.63;1.42;;;;;;;;;;4967656;28;20121;-65
2021/12/07 04:45:58;;;;;;;5.93;1.58;;;;;;;;;;4967287;28;20105;-65
2021/12/07 04:59:10;;;;;;;11.05;1.30;;;;;;;;;;4967492;28;20453;-64
2021/12/07 05:01:36;;;;;;;4.82;1.30;;;;;;;;;;4969857;28;20019;-66
2021/12/07 05:04:09;;;;;;;4.50;1.00;;;;;;;;;;4968992;28;20031;-66
2021/12/07 05:06:40;;;;;;;6.20;1.45;;;;;;;;;;4967416;28;20066;-66
2021/12/07 05:14:26;;;;;;;7.53;1.23;;;;;;;;;;4967428;28;20039;-65
2021/12/07 05:38:28;;;;;;;7.75;1.65;;;;;;;;;;4965102;28;20049;-66
2021/12/07 05:40:54;;;;;;;5.35;1.17;;;;;;;;;;4966804;28;20458;-65
2021/12/07 05:43:20;;;;;;;3.53;1.15;;;;;;;;;;4965884;28;20033;-65
2021/12/07 05:45:45;;;;;;;7.95;1.45;;;;;;;;;;4966816;28;20423;-66
2021/12/07 05:48:11;;;;;;;5.75;1.30;;;;;;;;;;4968182;28;20360;-66
2021/12/07 05:50:38;;;;;;;6.10;1.40;;;;;;;;;;4965976;28;20111;-67
2021/12/07 05:53:05;;;;;;;5.35;1.10;;;;;;;;;;4967082;28;20435;-68
2021/12/07 05:55:31;;;;;;;5.25;1.90;;;;;;;;;;4965966;28;20038;-67
2021/12/07 05:57:57;;;;;;;5.18;1.05;;;;;;;;;;4968762;28;20027;-67
2021/12/07 06:00:27;;;;;;;5.03;1.25;;;;;;;;;;4965931;28;20097;-65
2021/12/07 06:02:55;;;;;;;5.75;1.38;;;;;;;;;;4967682;28;20460;-66
2021/12/07 06:05:22;;;;;;;10.25;1.42;;;;;;;;;;4967056;28;20066;-68
2021/12/07 06:07:48;;;;;;;6.90;1.20;;;;;;;;;;4965544;28;20030;-64
2021/12/07 06:10:13;;;;;;;5.88;1.42;;;;;;;;;;4969769;28;20034;-64
2021/12/07 06:12:39;;;;;;;6.38;1.40;;;;;;;;;;4964945;28;20031;-64
2021/12/07 06:15:05;;;;;;;5.68;1.40;;;;;;;;;;4967832;28;20034;-64
2021/12/07 06:17:30;;;;;;;8.02;1.52;;;;;;;;;;4964981;28;20050;-64
2021/12/07 06:19:56;;;;;;;4.53;1.48;;;;;;;;;;4950347;28;20376;-66
2021/12/07 06:22:21;;;;;;;4.50;1.23;;;;;;;;;;4966867;28;20034;-66
2021/12/07 06:24:47;;;;;;;6.47;1.40;;;;;;;;;;4965490;28;20462;-65
2021/12/07 06:27:12;;;;;;;4.38;0.90;;;;;;;;;;4966421;28;20035;-65
2021/12/07 06:29:38;;;;;;;7.43;1.42;;;;;;;;;;4964797;28;20050;-65
2021/12/07 06:32:05;;;;;;;5.35;1.38;;;;;;;;;;4964902;28;20383;-66
2021/12/07 06:34:31;;;;;;;4.05;1.23;;;;;;;;;;4963759;28;20401;-65
2021/12/07 06:36:57;;;;;;;3.50;1.00;;;;;;;;;;4965657;28;20035;-65
2021/12/07 06:39:22;;;;;;;7.50;1.58;;;;;;;;;;4968905;28;20122;-65
2021/12/07 06:41:48;;;;;;;7.40;1.50;;;;;;;;;;4966356;28;20061;-65
2021/12/07 06:44:14;;;;;;;4.07;1.67;;;;;;;;;;4967600;28;20058;-65
2021/12/07 06:46:40;;;;;;;7.10;1.33;;;;;;;;;;4960704;28;20079;-66
2021/12/07 06:49:05;;;;;;;5.03;1.10;;;;;;;;;;4963178;28;20023;-66
2021/12/07 06:51:31;;;;;;;6.15;1.65;;;;;;;;;;4965841;28;20027;-64
2021/12/07 06:53:56;;;;;;;6.55;1.35;;;;;;;;;;4966228;28;20023;-65
2021/12/07 06:56:22;;;;;;;7.65;1.60;;;;;;;;;;4966480;28;20070;-65
2021/12/07 06:58:47;;;;;;;6.20;1.23;;;;;;;;;;4964282;28;20026;-65
2021/12/07 07:01:13;;;;;;;8.07;1.35;;;;;;;;;;4962823;28;20126;-65
2021/12/07 07:03:40;;;;;;;5.05;1.30;;;;;;;;;;4966971;28;20047;-65
2021/12/07 07:06:06;;;;;;;6.85;1.33;;;;;;;;;;4965885;28;20030;-66
2021/12/07 07:08:32;;;;;;;7.13;1.15;;;;;;;;;;4967657;28;20041;-65
2021/12/07 07:10:58;;;;;;;5.85;1.42;;;;;;;;;;4967816;28;20043;-65
2021/12/07 07:13:24;;;;;;;5.47;1.30;;;;;;;;;;4968540;28;20054;-66
2021/12/07 07:15:49;;;;;;;4.05;1.13;;;;;;;;;;4968386;28;20018;-66
2021/12/07 07:18:15;;;;;;;6.60;1.25;;;;;;;;;;4968539;28;20031;-65
2021/12/07 07:20:40;;;;;;;4.28;1.63;;;;;;;;;;4970415;28;20545;-66
2021/12/07 07:23:06;;;;;;;3.80;1.30;;;;;;;;;;4967246;28;20502;-66
2021/12/07 07:25:32;;;;;;;7.82;1.10;;;;;;;;;;4970519;28;20026;-66
2021/12/07 07:27:59;;;;;;;4.25;1.13;;;;;;;;;;4968114;28;20321;-66
2021/12/07 07:30:25;;;;;;;7.53;1.45;;;;;;;;;;4964486;28;20065;-66
2021/12/07 07:32:50;;;;;;;6.55;1.50;;;;;;;;;;4971959;28;20483;-65
2021/12/07 07:35:17;;;;;;;6.05;1.50;;;;;;;;;;4968122;28;20106;-67
2021/12/07 07:37:43;;;;;;;7.95;1.75;;;;;;;;;;4969597;28;20105;-66
2021/12/07 07:40:13;;;;;;;6.15;1.88;;;;;;;;;;4968288;28;20027;-67
2021/12/07 07:42:39;;;;;;;8.80;1.10;;;;;;;;;;4970568;28;20511;-66
2021/12/07 07:45:05;;;;;;;8.55;1.10;;;;;;;;;;4970661;28;20086;-67
2021/12/07 07:47:30;;;;;;;5.65;1.27;;;;;;;;;;4966164;28;20416;-67
2021/12/07 07:49:56;;;;;;;7.30;1.50;;;;;;;;;;4971358;28;20162;-66
2021/12/07 07:52:22;;;;;;;5.35;1.30;;;;;;;;;;4968867;28;20023;-66
2021/12/07 07:54:48;;;;;;;6.78;1.30;;;;;;;;;;4970153;28;20452;-66
2021/12/07 07:57:13;;;;;;;6.57;1.48;;;;;;;;;;4970099;28;20059;-65
2021/12/07 07:59:40;;;;;;;8.23;1.50;;;;;;;;;;4966984;28;20015;-65
2021/12/07 08:02:07;;;;;;;7.05;1.40;;;;;;;;;;4965066;28;20023;-65
2021/12/07 08:04:33;;;;;;;7.28;1.67;;;;;;;;;;4965240;28;20027;-65
2021/12/07 08:07:07;;;;;;;4.22;1.40;;;;;;;;;;4969440;28;20113;-65
2021/12/07 08:09:33;;;;;;;5.80;1.63;;;;;;;;;;4969356;28;20424;-65
2021/12/07 08:11:59;;;;;;;9.43;1.80;;;;;;;;;;4967545;28;20046;-65
2021/12/07 08:14:24;;;;;;;6.25;1.40;;;;;;;;;;4970900;28;20063;-65
2021/12/07 08:16:50;;;;;;;5.68;1.20;;;;;;;;;;4963920;28;20061;-66
2021/12/07 08:19:16;;;;;;;10.75;1.25;;;;;;;;;;4967260;28;20031;-65
2021/12/07 08:21:41;;;;;;;5.20;1.23;;;;;;;;;;4965967;28;20062;-66
2021/12/07 08:24:07;;;;;;;6.60;1.42;;;;;;;;;;4971334;28;20038;-65
2021/12/07 08:26:33;;;;;;;5.22;1.40;;;;;;;;;;4968184;28;20030;-64
2021/12/07 08:28:59;;;;;;;5.80;1.40;;;;;;;;;;4969658;28;20118;-67
2021/12/07 08:31:26;;;;;;;5.75;1.33;;;;;;;;;;4970591;28;20467;-64
2021/12/07 08:33:52;;;;;;;5.47;1.20;;;;;;;;;;4968016;28;20121;-65
2021/12/07 08:36:18;;;;;;;4.90;1.40;;;;;;;;;;4965825;28;20035;-67
2021/12/07 08:38:44;;;;;;;8.23;1.45;;;;;;;;;;4969937;28;20027;-66
2021/12/07 08:41:11;;;;;;;5.85;1.13;;;;;;;;;;4969150;28;20483;-65
2021/12/07 08:43:41;;;;;;;5.70;1.10;;;;;;;;;;4968152;28;20031;-64
2021/12/07 08:46:07;;;;;;;4.43;1.10;;;;;;;;;;4967117;28;20052;-64
2021/12/07 08:48:36;;;;;;;7.80;1.63;;;;;;;;;;4969072;28;20027;-64
2021/12/07 08:51:04;;;;;;;4.72;1.27;;;;;;;;;;4969028;28;20458;-64
2021/12/07 08:53:31;;;;;;;6.80;1.65;;;;;;;;;;4967651;28;20483;-64
2021/12/07 09:01:27;;;;;;;10.43;1.35;;;;;;;;;;4968627;28;20065;-65
2021/12/07 09:03:55;;;;;;;6.65;1.15;;;;;;;;;;4966777;28;20050;-65
2021/12/07 09:06:21;;;;;;;7.43;1.40;;;;;;;;;;4966385;28;20408;-65
2021/12/07 09:08:47;;;;;;;8.15;1.92;;;;;;;;;;4965516;28;20022;-65
2021/12/07 09:11:14;;;;;;;6.57;1.55;;;;;;;;;;4967815;28;20113;-64
2021/12/07 09:13:40;;;;;;;4.15;1.10;;;;;;;;;;4963934;28;20090;-65
2021/12/07 09:16:08;;;;;;;3.92;1.35;;;;;;;;;;4968270;28;20113;-66
2021/12/07 09:18:33;;;;;;;2.45;1.05;;;;;;;;;;4967586;28;20018;-66
2021/12/07 09:20:59;;;;;;;6.22;1.10;;;;;;;;;;4966497;28;20165;-66
2021/12/07 09:23:25;;;;;;;5.97;1.98;;;;;;;;;;4967314;28;20113;-65
2021/12/07 09:25:52;;;;;;;3.78;0.98;;;;;;;;;;4968869;28;20131;-66
2021/12/07 09:28:17;;;;;;;2.40;1.02;;;;;;;;;;4964855;28;20399;-66
2021/12/07 09:30:43;;;;;;;7.15;1.40;;;;;;;;;;4967042;28;20034;-66
2021/12/07 09:33:08;;;;;;;5.00;1.30;;;;;;;;;;4965646;28;20144;-65
2021/12/07 09:35:35;;;;;;;5.50;1.20;;;;;;;;;;4968318;28;20046;-65
2021/12/07 09:38:02;;;;;;;7.70;1.63;;;;;;;;;;4966096;28;20023;-66
2021/12/07 09:40:28;;;;;;;8.02;1.30;;;;;;;;;;4967416;28;20595;-66
2021/12/07 09:42:57;;;;;;;7.97;1.42;;;;;;;;;;4967045;28;20061;-66
2021/12/07 09:45:25;;;;;;;6.75;1.58;;;;;;;;;;4965908;28;20031;-65
2021/12/07 09:47:51;;;;;;;5.28;1.02;;;;;;;;;;4966341;28;20072;-65
2021/12/07 09:50:19;;;;;;;8.57;1.20;;;;;;;;;;4965817;28;20460;-67
2021/12/07 09:52:46;;;;;;;6.07;1.40;;;;;;;;;;4966931;28;20034;-67
2021/12/07 09:55:12;;;;;;;6.35;1.10;;;;;;;;;;4965822;28;20042;-66
2021/12/07 09:57:38;;;;;;;4.65;1.27;;;;;;;;;;4966511;28;20551;-65
2021/12/07 10:00:07;;;;;;;6.25;1.33;;;;;;;;;;4966994;28;20125;-66
2021/12/07 10:02:32;;;;;;;6.47;1.50;;;;;;;;;;4965932;28;20031;-67
2021/12/07 10:04:58;;;;;;;6.45;1.75;;;;;;;;;;4965914;28;20042;-65
2021/12/07 10:07:23;;;;;;;4.93;1.08;;;;;;;;;;4963949;28;20034;-67
2021/12/07 10:09:48;;;;;;;6.55;1.20;;;;;;;;;;4965470;28;20031;-66
2021/12/07 10:12:19;;;;;;;4.63;1.10;;;;;;;;;;4964103;28;20022;-65
2021/12/07 10:14:46;;;;;;;5.10;1.55;;;;;;;;;;4965594;28;20034;-66
2021/12/07 10:17:11;;;;;;;11.82;1.90;;;;;;;;;;4965354;28;20038;-65
2021/12/07 10:19:42;;;;;;;4.47;1.25;;;;;;;;;;4965339;28;20065;-65
2021/12/07 10:22:15;;;;;;;5.15;1.00;;;;;;;;;;4965583;28;20557;-65
2021/12/07 10:24:47;;;;;;;3.30;1.10;;;;;;;;;;4964254;28;20176;-65
2021/12/07 10:27:30;;;;;;;5.95;1.20;;;;;;;;;;4966292;28;20797;-65
2021/12/07 10:29:55;;;;;;;5.72;1.60;;;;;;;;;;4965144;28;20031;-65
2021/12/07 10:32:21;;;;;;;7.00;1.50;;;;;;;;;;4964536;28;20510;-65
2021/12/07 10:34:47;;;;;;;9.50;1.42;;;;;;;;;;4968642;28;20033;-65
2021/12/07 10:37:16;;;;;;;6.38;1.33;;;;;;;;;;4965487;28;20386;-65
2021/12/07 10:39:46;;;;;;;4.35;1.10;;;;;;;;;;4963022;28;20397;-65
2021/12/07 10:42:17;;;;;;;4.90;1.20;;;;;;;;;;4962449;28;20027;-65
2021/12/07 10:44:43;;;;;;;5.25;1.08;;;;;;;;;;4966713;28;20061;-64
2021/12/07 10:47:14;;;;;;;6.28;1.02;;;;;;;;;;4969242;28;20062;-65
2021/12/07 10:49:44;;;;;;;5.32;1.10;;;;;;;;;;4968179;28;20041;-65
2021/12/07 10:52:11;;;;;;;9.15;1.40;;;;;;;;;;4968329;28;20022;-65
2021/12/07 10:55:00;;;;;;;5.13;1.50;;;;;;;;;;4967126;28;20146;-65
2021/12/07 10:57:52;;;;;;;5.45;1.75;;;;;;;;;;4971387;28;20498;-65
2021/12/07 11:00:33;;;;;;;5.00;1.40;;;;;;;;;;4973502;28;20039;-65
2021/12/07 11:03:06;;;;;;;7.63;1.38;;;;;;;;;;4968705;28;20038;-65
2021/12/07 11:05:34;;;;;;;3.97;1.07;;;;;;;;;;4971647;28;20122;-65
2021/12/07 11:08:01;;;;;;;3.30;1.10;;;;;;;;;;4969279;28;20041;-66
2021/12/07 11:10:30;;;;;;;4.57;0.98;;;;;;;;;;4968948;28;20452;-65
2021/12/07 11:13:18;;;;;;;8.45;1.10;;;;;;;;;;4966105;28;20042;-65
2021/12/07 11:15:52;;;;;;;6.53;1.00;;;;;;;;;;4967443;28;20486;-65
2021/12/07 11:18:28;;;;;;;4.07;1.33;;;;;;;;;;4964607;28;20113;-65
2021/12/07 11:20:57;;;;;;;4.55;1.45;;;;;;;;;;4966737;28;20023;-65
2021/12/07 11:23:28;;;;;;;6.68;1.50;;;;;;;;;;4964814;28;20106;-65
2021/12/07 11:31:26;;;;;;;8.98;1.40;;;;;;;;;;4968396;28;20498;-66
2021/12/07 11:33:55;;;;;;;4.80;1.00;;;;;;;;;;4965896;28;20502;-65
2021/12/07 11:36:31;;;;;;;4.72;1.00;;;;;;;;;;4963547;28;20034;-66
2021/12/07 11:38:58;;;;;;;4.03;0.95;;;;;;;;;;4965094;28;20094;-66
2021/12/07 11:41:31;;;;;;;3.92;1.17;;;;;;;;;;4966723;28;20030;-66
2021/12/07 11:44:08;;;;;;;5.93;0.85;;;;;;;;;;4967219;28;20088;-66
2021/12/07 11:46:36;;;;;;;8.13;1.00;;;;;;;;;;4967302;28;20122;-66
2021/12/07 11:49:07;;;;;;;7.35;1.13;;;;;;;;;;4964137;28;20089;-66
2021/12/07 11:51:32;;;;;;;6.63;1.23;;;;;;;;;;4969851;28;20026;-66
2021/12/07 11:53:58;;;;;;;7.70;0.93;;;;;;;;;;4963167;28;20074;-65
2021/12/07 11:56:23;;;;;;;4.82;1.23;;;;;;;;;;4965052;28;20023;-66
2021/12/07 11:58:49;;;;;;;3.30;1.50;;;;;;;;;;4965754;28;20023;-66
2021/12/07 12:01:14;;;;;;;7.45;0.98;;;;;;;;;;4963315;28;20034;-66
2021/12/07 12:03:40;;;;;;;8.50;0.95;;;;;;;;;;4966958;28;20049;-66
2021/12/07 12:06:05;;;;;;;2.45;0.80;;;;;;;;;;4965677;28;20031;-66
2021/12/07 12:08:32;;;;;;;4.28;1.20;;;;;;;;;;4967371;28;20134;-65
2021/12/07 12:11:13;;;;;;;10.70;1.13;;;;;;;;;;4969365;28;20034;-66
2021/12/07 12:14:02;;;;;;;6.47;1.02;;;;;;;;;;4967594;28;20471;-66
2021/12/07 12:16:41;;;;;;;3.60;0.73;;;;;;;;;;4969481;28;20161;-67
2021/12/07 12:19:29;;;;;;;3.50;0.85;;;;;;;;;;4967932;28;20035;-66
2021/12/07 12:22:16;;;;;;;8.52;0.90;;;;;;;;;;4967809;28;20061;-66
2021/12/07 12:24:48;;;;;;;5.95;1.38;;;;;;;;;;4965710;28;20101;-66
2021/12/07 12:27:18;;;;;;;3.10;0.90;;;;;;;;;;4966759;28;20452;-65
2021/12/07 12:29:47;;;;;;;5.75;1.05;;;;;;;;;;4964047;28;20510;-65
2021/12/07 12:32:13;;;;;;;6.50;1.10;;;;;;;;;;4965161;28;20038;-66
2021/12/07 12:34:49;;;;;;;5.90;1.00;;;;;;;;;;4966297;28;20038;-66
2021/12/07 12:37:18;;;;;;;6.72;0.90;;;;;;;;;;4960820;28;20523;-66
2021/12/07 12:39:52;;;;;;;7.03;0.85;;;;;;;;;;4965934;28;20496;-66
2021/12/07 12:42:38;;;;;;;4.60;1.00;;;;;;;;;;4962839;28;20515;-66
2021/12/07 12:45:22;;;;;;;7.13;1.30;;;;;;;;;;4963535;28;20085;-65
2021/12/07 12:48:20;;;;;;;5.75;1.10;;;;;;;;;;4965117;28;20042;-66
2021/12/07 12:50:50;;;;;;;5.55;1.20;;;;;;;;;;4965963;28;20039;-67
2021/12/07 12:53:25;;;;;;;7.78;1.20;;;;;;;;;;4965425;28;20030;-65
2021/12/07 12:55:57;;;;;;;5.93;1.02;;;;;;;;;;4965733;28;20073;-65
2021/12/07 12:58:29;;;;;;;7.67;1.47;;;;;;;;;;4966633;28;20601;-65
2021/12/07 13:01:12;;;;;;;7.65;1.10;;;;;;;;;;4966813;28;20073;-65
2021/12/07 13:04:00;;;;;;;5.97;0.90;;;;;;;;;;4966692;28;20031;-65
2021/12/07 13:06:26;;;;;;;5.65;1.20;;;;;;;;;;4962031;28;20085;-67
2021/12/07 13:08:57;;;;;;;6.97;1.40;;;;;;;;;;4966327;28;20035;-66
2021/12/07 13:11:37;;;;;;;6.75;0.90;;;;;;;;;;4968175;28;20147;-68
2021/12/07 13:14:05;;;;;;;6.95;1.00;;;;;;;;;;4967531;28;20022;-65
2021/12/07 13:16:33;;;;;;;4.80;0.90;;;;;;;;;;4966241;28;20412;-66
2021/12/07 13:19:18;;;;;;;6.47;1.20;;;;;;;;;;4963763;28;20054;-66
2021/12/07 13:21:45;;;;;;;4.00;0.95;;;;;;;;;;4965830;28;20078;-66
2021/12/07 13:24:38;;;;;;;8.68;1.15;;;;;;;;;;4966247;28;20439;-66
2021/12/07 13:27:10;;;;;;;5.38;0.80;;;;;;;;;;4964981;28;20512;-66
2021/12/07 13:29:37;;;;;;;8.02;1.23;;;;;;;;;;4965702;28;20031;-65
2021/12/07 13:32:05;;;;;;;6.80;1.20;;;;;;;;;;4965492;28;20100;-67
2021/12/07 13:34:34;;;;;;;4.35;0.88;;;;;;;;;;4966505;28;20060;-67
2021/12/07 13:37:06;;;;;;;5.78;1.02;;;;;;;;;;4962459;28;20122;-66
2021/12/07 13:39:44;;;;;;;5.20;1.20;;;;;;;;;;4968466;28;20086;-67
2021/12/07 13:42:18;;;;;;;5.07;1.00;;;;;;;;;;4968215;28;20052;-66
2021/12/07 13:45:05;;;;;;;6.78;1.23;;;;;;;;;;4965798;28;20081;-66
2021/12/07 13:47:37;;;;;;;3.50;0.95;;;;;;;;;;4965960;28;20038;-66
2021/12/07 13:50:21;;;;;;;13.80;1.55;;;;;;;;;;4965388;28;20057;-66
2021/12/07 13:52:50;;;;;;;7.18;1.85;;;;;;;;;;4967547;28;20157;-65
2021/12/07 13:55:20;;;;;;;3.55;1.23;;;;;;;;;;4967645;28;20032;-66
2021/12/07 13:57:49;;;;;;;3.80;1.20;;;;;;;;;;4966643;28;20035;-66
2021/12/07 14:00:25;;;;;;;5.15;1.27;;;;;;;;;;4967442;28;20022;-65
2021/12/07 14:02:55;;;;;;;5.95;1.50;;;;;;;;;;4965338;28;20023;-66
2021/12/07 14:05:26;;;;;;;4.78;1.10;;;;;;;;;;4965884;28;20090;-66
2021/12/07 14:07:53;;;;;;;5.90;1.00;;;;;;;;;;4964057;28;20049;-66
2021/12/07 14:10:25;;;;;;;5.95;1.48;;;;;;;;;;4968434;28;20118;-66
2021/12/07 14:12:53;;;;;;;6.20;1.40;;;;;;;;;;4965827;28;20031;-65
2021/12/07 14:15:28;;;;;;;6.85;2.00;;;;;;;;;;4966955;28;20039;-65
2021/12/07 14:18:00;;;;;;;5.75;1.63;;;;;;;;;;4963897;28;20034;-66
2021/12/07 14:20:30;;;;;;;4.15;1.85;;;;;;;;;;4965514;28;20042;-66
2021/12/07 14:22:57;;;;;;;4.70;1.33;;;;;;;;;;4964023;28;20034;-66
2021/12/07 14:25:23;;;;;;;2.65;1.00;;;;;;;;;;4963642;28;20141;-67
2021/12/07 14:27:48;;;;;;;6.20;1.15;;;;;;;;;;4963704;28;20053;-66
2021/12/07 14:30:15;;;;;;;2.92;1.17;;;;;;;;;;4968414;28;20050;-67
2021/12/07 14:32:45;;;;;;;5.53;1.25;;;;;;;;;;4965122;28;20475;-67
2021/12/07 14:35:12;;;;;;;3.63;1.20;;;;;;;;;;4965616;28;20502;-65
2021/12/07 14:37:38;;;;;;;6.40;1.50;;;;;;;;;;4961789;28;20035;-64
2021/12/07 14:40:06;;;;;;;6.57;1.23;;;;;;;;;;4963751;28;21092;-65
2021/12/07 14:42:32;;;;;;;3.80;1.35;;;;;;;;;;4963821;28;20113;-65
2021/12/07 14:44:58;;;;;;;3.60;1.35;;;;;;;;;;4965883;28;20251;-66
2021/12/07 14:47:25;;;;;;;2.97;1.42;;;;;;;;;;4961728;28;20029;-66
2021/12/07 14:49:54;;;;;;;6.35;1.70;;;;;;;;;;4959446;28;20111;-66
2021/12/07 14:52:26;;;;;;;7.05;1.83;;;;;;;;;;4963976;28;20077;-66
2021/12/07 14:54:54;;;;;;;7.10;1.73;;;;;;;;;;4965889;28;20416;-66
2021/12/07 14:57:21;;;;;;;9.73;2.03;;;;;;;;;;4962204;28;20475;-65
2021/12/07 14:59:49;;;;;;;11.23;2.67;;;;;;;;;;4966310;28;20208;-65
2021/12/07 15:02:15;;;;;;;8.45;1.98;;;;;;;;;;4966268;28;20439;-66
2021/12/07 15:04:41;;;;;;;9.07;1.80;;;;;;;;;;4965635;28;20029;-67
2021/12/07 15:07:13;;;;;;;7.05;1.60;;;;;;;;;;4965613;28;20436;-66
2021/12/07 15:09:40;;;;;;;6.82;1.95;;;;;;;;;;4964395;28;20061;-64
2021/12/07 15:12:09;;;;;;;4.50;1.67;;;;;;;;;;4967093;28;20061;-66
2021/12/07 15:14:35;;;;;;;6.80;1.88;;;;;;;;;;4963732;28;20408;-66
2021/12/07 15:17:04;;;;;;;8.52;1.70;;;;;;;;;;4962262;28;20031;-65
2021/12/07 15:19:31;;;;;;;4.57;1.60;;;;;;;;;;4964006;28;20050;-65
2021/12/07 15:21:59;;;;;;;5.35;2.08;;;;;;;;;;4964864;28;20038;-66
2021/12/07 15:24:27;;;;;;;10.38;2.25;;;;;;;;;;4964491;28;20503;-65
2021/12/07 15:26:53;;;;;;;7.03;1.85;;;;;;;;;;4963944;28;20034;-66
2021/12/07 15:29:21;;;;;;;7.25;2.03;;;;;;;;;;4969860;28;20039;-65
2021/12/07 15:31:50;;;;;;;6.53;2.05;;;;;;;;;;4969278;28;20062;-66
2021/12/07 15:34:18;;;;;;;8.00;1.70;;;;;;;;;;4968863;28;20035;-66
2021/12/07 15:36:45;;;;;;;3.45;1.65;;;;;;;;;;4968027;28;20027;-67
2021/12/07 15:39:18;;;;;;;6.90;1.48;;;;;;;;;;4969987;28;20026;-65
2021/12/07 15:41:53;;;;;;;9.40;1.83;;;;;;;;;;4966842;28;20034;-68
2021/12/07 15:44:25;;;;;;;6.18;1.75;;;;;;;;;;4968896;28;20490;-67
2021/12/07 15:46:55;;;;;;;6.40;1.60;;;;;;;;;;4968658;28;20031;-66
2021/12/07 15:49:27;;;;;;;6.55;1.92;;;;;;;;;;4965312;28;20089;-68
2021/12/07 15:51:55;;;;;;;6.68;1.40;;;;;;;;;;4970234;28;20128;-67
2021/12/07 15:54:21;;;;;;;12.80;3.38;;;;;;;;;;4978715;28;20039;-67
2021/12/07 15:57:02;;;;;;;11.00;3.03;;;;;;;;;;4966111;28;20035;-67
2021/12/07 15:59:28;;;;;;;13.50;2.25;;;;;;;;;;4967383;28;20046;-66
2021/12/07 16:01:54;;;;;;;11.02;2.35;;;;;;;;;;4966262;28;20039;-67
2021/12/07 16:04:22;;;;;;;5.30;1.88;;;;;;;;;;4968762;28;20027;-67
2021/12/07 16:06:48;;;;;;;8.18;1.95;;;;;;;;;;4966096;28;20468;-67
2021/12/07 16:09:16;;;;;;;11.57;2.60;;;;;;;;;;4968325;28;20146;-65
2021/12/07 16:11:42;;;;;;;10.75;2.80;;;;;;;;;;4966138;28;20527;-66
2021/12/07 16:14:08;;;;;;;9.63;2.72;;;;;;;;;;4967961;28;20118;-65
2021/12/07 16:16:33;;;;;;;7.07;2.67;;;;;;;;;;4969578;28;20086;-65
2021/12/07 16:18:59;;;;;;;10.05;2.63;;;;;;;;;;4966041;28;20023;-65
2021/12/07 16:21:27;;;;;;;4.57;1.90;;;;;;;;;;4968927;28;20056;-67
2021/12/07 16:23:56;;;;;;;11.40;2.92;;;;;;;;;;4965142;28;20031;-66
2021/12/07 16:26:23;;;;;;;11.20;2.40;;;;;;;;;;4968985;28;20070;-66
2021/12/07 16:28:54;;;;;;;9.80;2.28;;;;;;;;;;4970722;28;20494;-66
2021/12/07 16:31:24;;;;;;;7.93;2.38;;;;;;;;;;4965937;28;20111;-66
2021/12/07 16:33:51;;;;;;;12.07;2.38;;;;;;;;;;4968733;28;20031;-66
2021/12/07 16:36:18;;;;;;;10.90;2.50;;;;;;;;;;4967561;28;20048;-67
2021/12/07 16:38:45;;;;;;;7.68;2.75;;;;;;;;;;4968776;28;20073;-66
2021/12/07 16:41:13;;;;;;;6.85;2.22;;;;;;;;;;4966693;28;20041;-68
2021/12/07 16:43:39;;;;;;;8.45;2.28;;;;;;;;;;4965262;28;20333;-68
2021/12/07 16:46:06;;;;;;;10.13;2.63;;;;;;;;;;4965174;28;20094;-65